createdAt,value
2023-01-21T00:00:07.243Z,100533.75
2023-01-21T00:02:34.231Z,100553.16
2023-01-21T00:05:01.241Z,100549.59
2023-01-21T00:07:28.166Z,100551.75
2023-01-21T00:09:55.391Z,100551.75
2023-01-21T00:12:22.572Z,100556.13
2023-01-21T00:14:49.272Z,100556.41
2023-01-21T00:17:16.015Z,100555.59
2023-01-21T00:19:42.819Z,100561.88
2023-01-21T00:22:09.626Z,100564.38
2023-01-21T00:24:36.693Z,100566.19
2023-01-21T00:27:03.685Z,100564.88
2023-01-21T00:29:30.866Z,100561.06
2023-01-21T00:32:01.842Z,100560.19
2023-01-21T00:34:29.443Z,100564.03
2023-01-21T00:36:56.714Z,100562.09
2023-01-21T00:39:25.225Z,100560.91
2023-01-21T00:41:51.998Z,100563.19
2023-01-21T00:44:19.335Z,100556.63
2023-01-21T00:46:46.045Z,100562.38
2023-01-21T00:49:12.815Z,100557.50
2023-01-21T00:51:39.570Z,100556.94
2023-01-21T00:54:06.662Z,100567.03
2023-01-21T00:56:33.647Z,100569.78
2023-01-21T00:59:00.656Z,100567.56
2023-01-21T01:01:30.429Z,100571.94
2023-01-21T01:03:57.649Z,100579.34
2023-01-21T01:06:24.895Z,100579.50
2023-01-21T01:08:52.363Z,100580.13
2023-01-21T01:11:21.632Z,100579.78
2023-01-21T01:13:48.696Z,100584.16
2023-01-21T01:16:17.585Z,100586.81
2023-01-21T01:18:44.605Z,100590.50
2023-01-21T01:21:17.015Z,100579.53
2023-01-21T01:23:44.540Z,100579.81
2023-01-21T01:26:14.319Z,100583.63
2023-01-21T01:28:41.412Z,100573.19
2023-01-21T01:31:11.349Z,100570.69
2023-01-21T01:33:38.307Z,100581.09
2023-01-21T01:36:12.472Z,100577.78
2023-01-21T01:38:39.345Z,100575.34
2023-01-21T01:41:06.591Z,100574.56
2023-01-21T01:44:05.822Z,100582.72
2023-01-21T01:46:35.544Z,100583.22
2023-01-21T01:49:10.266Z,100581.34
2023-01-21T01:51:57.335Z,100583.22
2023-01-21T01:54:29.128Z,100586.56
2023-01-21T01:56:58.279Z,100593.66
2023-01-21T01:59:25.225Z,100594.53
2023-01-21T02:01:52.068Z,100585.69
2023-01-21T02:04:23.587Z,100592.88
2023-01-21T02:06:52.545Z,100594.81
2023-01-21T02:09:19.693Z,100599.22
2023-01-21T02:11:46.462Z,100597.31
2023-01-21T02:14:13.709Z,100606.63
2023-01-21T02:17:09.001Z,100602.75
2023-01-21T02:19:45.441Z,100600.25
2023-01-21T02:22:19.870Z,100610.38
2023-01-21T02:24:52.566Z,100598.88
2023-01-21T02:27:37.075Z,100610.81
2023-01-21T02:32:58.970Z,100613.88
2023-01-21T02:35:39.381Z,100614.41
2023-01-21T02:38:17.736Z,100622.41
2023-01-21T02:41:20.919Z,100613.63
2023-01-21T02:44:05.753Z,100615.53
2023-01-21T02:46:42.756Z,100619.41
2023-01-21T02:49:22.575Z,100620.78
2023-01-21T02:51:49.803Z,100621.03
2023-01-21T02:54:38.990Z,100624.06
2023-01-21T02:57:20.433Z,100625.94
2023-01-21T02:59:49.908Z,100626.25
2023-01-21T03:02:38.728Z,100628.41
2023-01-21T03:05:28.619Z,100626.75
2023-01-21T03:08:02.614Z,100642.28
2023-01-21T03:10:37.151Z,100631.88
2023-01-21T03:13:07.563Z,100636.84
2023-01-21T03:16:07.255Z,100638.94
2023-01-21T03:18:46.029Z,100635.19
2023-01-21T03:21:17.009Z,100637.34
2023-01-21T03:23:47.419Z,100635.97
2023-01-21T03:26:17.988Z,100634.31
2023-01-21T03:28:48.445Z,100647.88
2023-01-21T03:31:22.951Z,100642.38
2023-01-21T03:33:52.540Z,100648.16
2023-01-21T03:36:27.078Z,100647.06
2023-01-21T03:38:56.135Z,100652.72
2023-01-21T03:41:26.140Z,100660.69
2023-01-21T03:43:52.758Z,100659.56
2023-01-21T03:46:37.320Z,100654.44
2023-01-21T03:49:07.247Z,100654.69
2023-01-21T03:51:39.795Z,100656.56
2023-01-21T03:54:06.544Z,100659.03
2023-01-21T03:56:33.024Z,100660.03
2023-01-21T03:58:59.542Z,100668.50
2023-01-21T04:01:25.982Z,100653.50
2023-01-21T04:03:52.872Z,100650.97
2023-01-21T04:06:21.587Z,100644.25
2023-01-21T04:08:54.569Z,100653.00
2023-01-21T04:11:21.135Z,100662.38
2023-01-21T04:13:47.479Z,100656.34
2023-01-21T04:16:14.066Z,100663.22
2023-01-21T04:18:40.541Z,100664.09
2023-01-21T04:21:07.035Z,100661.34
2023-01-21T04:23:33.549Z,100671.41
2023-01-21T04:26:00.354Z,100666.28
2023-01-21T04:28:26.836Z,100680.72
2023-01-21T04:30:53.254Z,100677.16
2023-01-21T04:33:19.711Z,100672.19
2023-01-21T04:35:46.489Z,100677.53
2023-01-21T04:38:13.811Z,100673.97
2023-01-21T04:40:40.224Z,100677.84
2023-01-21T04:43:07.227Z,100678.03
2023-01-21T04:45:34.051Z,100673.75
2023-01-21T04:48:00.537Z,100675.16
2023-01-21T04:50:26.992Z,100676.28
2023-01-21T04:52:53.601Z,100666.72
2023-01-21T04:55:20.261Z,100672.69
2023-01-21T04:57:46.628Z,100662.31
2023-01-21T05:00:13.388Z,100673.81
2023-01-21T05:02:39.853Z,100672.09
2023-01-21T05:05:11.628Z,100680.41
2023-01-21T05:07:38.069Z,100688.56
2023-01-21T05:10:05.088Z,100686.88
2023-01-21T05:12:32.065Z,100689.94
2023-01-21T05:14:58.461Z,100692.94
2023-01-21T05:17:25.466Z,100694.59
2023-01-21T05:19:51.985Z,100706.00
2023-01-21T05:22:25.546Z,100701.63
2023-01-21T05:24:52.008Z,100701.66
2023-01-21T05:27:19.909Z,100703.53
2023-01-21T05:29:46.361Z,100705.22
2023-01-21T05:32:12.936Z,100700.06
2023-01-21T05:34:39.436Z,100705.22
2023-01-21T05:37:06.059Z,100704.41
2023-01-21T05:39:32.834Z,100707.13
2023-01-21T05:41:59.299Z,100701.72
2023-01-21T05:44:25.706Z,100698.38
2023-01-21T05:46:52.518Z,100703.84
2023-01-21T05:49:19.648Z,100695.72
2023-01-21T05:51:46.209Z,100704.41
2023-01-21T05:54:13.042Z,100700.38
2023-01-21T05:56:39.510Z,100692.13
2023-01-21T05:59:06.026Z,100708.28
2023-01-21T06:01:32.510Z,100706.06
2023-01-21T06:03:58.960Z,100707.19
2023-01-21T06:06:25.322Z,100711.00
2023-01-21T06:08:51.782Z,100715.91
2023-01-21T06:11:18.199Z,100711.47
2023-01-21T06:13:44.831Z,100712.59
2023-01-21T06:16:11.323Z,100712.09
2023-01-21T06:18:37.866Z,100711.00
2023-01-21T06:21:04.508Z,100722.41
2023-01-21T06:23:30.924Z,100718.69
2023-01-21T06:26:01.574Z,100725.72
2023-01-21T06:28:29.245Z,100721.38
2023-01-21T06:30:56.047Z,100728.19
2023-01-21T06:33:22.599Z,100721.59
2023-01-21T06:35:49.024Z,100718.28
2023-01-21T06:38:19.000Z,100711.44
2023-01-21T06:40:45.434Z,100714.16
2023-01-21T06:43:11.990Z,100712.56
2023-01-21T06:45:44.122Z,100713.94
2023-01-21T06:48:10.517Z,100716.44
2023-01-21T06:50:36.920Z,100722.19
2023-01-21T06:53:03.531Z,100720.25
2023-01-21T06:55:29.948Z,100724.59
2023-01-21T06:57:57.481Z,100731.28
2023-01-21T07:00:24.401Z,100726.31
2023-01-21T07:02:55.980Z,100725.06
2023-01-21T07:05:23.243Z,100726.97
2023-01-21T07:07:49.569Z,100730.75
2023-01-21T07:10:16.860Z,100731.34
2023-01-21T07:12:43.853Z,100724.28
2023-01-21T07:15:10.348Z,100719.94
2023-01-21T07:17:36.979Z,100727.28
2023-01-21T07:20:05.012Z,100716.63
2023-01-21T07:22:33.951Z,100722.56
2023-01-21T07:25:01.513Z,100732.19
2023-01-21T07:27:27.946Z,100729.69
2023-01-21T07:29:54.472Z,100736.88
2023-01-21T07:32:21.643Z,100728.19
2023-01-21T07:34:48.077Z,100742.38
2023-01-21T07:37:14.791Z,100744.50
2023-01-21T07:39:41.279Z,100748.16
2023-01-21T07:42:09.059Z,100739.13
2023-01-21T07:44:35.498Z,100748.72
2023-01-21T07:47:02.065Z,100747.94
2023-01-21T07:49:28.452Z,100748.13
2023-01-21T07:51:58.087Z,100746.81
2023-01-21T07:54:24.734Z,100744.00
2023-01-21T07:56:51.085Z,100739.69
2023-01-21T07:59:17.685Z,100740.78
2023-01-21T08:01:45.467Z,100747.38
2023-01-21T08:04:12.102Z,100744.13
2023-01-21T08:06:41.184Z,100738.34
2023-01-21T08:09:09.613Z,100738.66
2023-01-21T08:11:36.048Z,100738.91
2023-01-21T08:14:02.449Z,100737.34
2023-01-21T08:16:29.009Z,100736.75
2023-01-21T08:18:55.396Z,100740.00
2023-01-21T08:21:22.039Z,100735.19
2023-01-21T08:23:48.546Z,100737.38
2023-01-21T08:26:15.225Z,100747.66
2023-01-21T08:28:44.099Z,100746.28
2023-01-21T08:31:12.525Z,100752.59
2023-01-21T08:33:39.515Z,100749.63
2023-01-21T08:36:07.608Z,100749.06
2023-01-21T08:38:35.417Z,100743.84
2023-01-21T08:41:01.974Z,100742.06
2023-01-21T08:43:28.464Z,100736.78
2023-01-21T08:46:01.633Z,100741.09
2023-01-21T08:48:29.224Z,100733.47
2023-01-21T08:51:00.151Z,100737.59
2023-01-21T08:53:26.704Z,100739.25
2023-01-21T08:55:53.130Z,100738.72
2023-01-21T08:58:19.608Z,100740.66
2023-01-21T09:00:46.095Z,100745.59
2023-01-21T09:03:14.322Z,100740.13
2023-01-21T09:05:40.671Z,100744.28
2023-01-21T09:08:07.061Z,100751.44
2023-01-21T09:10:52.700Z,100742.94
2023-01-21T09:13:20.175Z,100751.47
2023-01-21T09:15:46.855Z,100756.69
2023-01-21T09:18:13.535Z,100756.66
2023-01-21T09:20:40.443Z,100756.19
2023-01-21T09:23:24.591Z,100755.94
2023-01-21T09:26:05.580Z,100754.88
2023-01-21T09:28:34.395Z,100753.84
2023-01-21T09:31:03.107Z,100754.09
2023-01-21T09:33:30.568Z,100750.78
2023-01-21T09:36:01.638Z,100754.13
2023-01-21T09:38:29.179Z,100758.25
2023-01-21T09:40:57.515Z,100750.56
2023-01-21T09:43:27.621Z,100758.78
2023-01-21T09:45:56.321Z,100752.22
2023-01-21T09:48:32.852Z,100752.25
2023-01-21T09:51:03.287Z,100747.84
2023-01-21T09:53:38.220Z,100744.81
2023-01-21T09:56:07.284Z,100737.97
2023-01-21T09:58:46.818Z,100740.22
2023-01-21T10:01:24.520Z,100739.19
2023-01-21T10:03:56.842Z,100737.81
2023-01-21T10:06:28.512Z,100733.41
2023-01-21T10:09:21.291Z,100747.69
2023-01-21T10:12:11.044Z,100746.59
2023-01-21T10:14:46.351Z,100744.44
2023-01-21T10:17:18.585Z,100741.44
2023-01-21T10:19:54.761Z,100737.06
2023-01-21T10:22:25.473Z,100737.59
2023-01-21T10:24:55.437Z,100738.72
2023-01-21T10:27:22.523Z,100738.16
2023-01-21T10:29:53.058Z,100733.50
2023-01-21T10:32:25.923Z,100725.81
2023-01-21T10:34:54.130Z,100718.41
2023-01-21T10:37:27.831Z,100714.03
2023-01-21T10:40:12.519Z,100723.09
2023-01-21T10:42:59.642Z,100718.69
2023-01-21T10:45:45.347Z,100721.44
2023-01-21T10:48:23.463Z,100714.31
2023-01-21T10:50:56.935Z,100711.84
2023-01-21T10:54:08.419Z,100711.56
2023-01-21T10:57:12.725Z,100697.84
2023-01-21T10:59:40.436Z,100705.81
2023-01-21T11:02:12.777Z,100695.13
2023-01-21T11:04:40.812Z,100695.66
2023-01-21T11:07:13.246Z,100693.47
2023-01-21T11:09:42.052Z,100686.63
2023-01-21T11:12:10.404Z,100688.00
2023-01-21T11:14:37.446Z,100684.75
2023-01-21T11:17:05.909Z,100676.78
2023-01-21T11:19:32.528Z,100684.47
2023-01-21T11:22:18.110Z,100693.78
2023-01-21T11:24:49.953Z,100686.94
2023-01-21T11:27:23.101Z,100679.22
2023-01-21T11:29:50.440Z,100681.72
2023-01-21T11:32:20.440Z,100665.25
2023-01-21T11:34:48.790Z,100655.09
2023-01-21T11:37:26.389Z,100658.94
2023-01-21T11:39:58.026Z,100652.38
2023-01-21T11:42:24.916Z,100650.72
2023-01-21T11:44:57.968Z,100648.81
2023-01-21T11:47:38.942Z,100639.75
2023-01-21T11:50:12.209Z,100637.56
2023-01-21T11:52:38.724Z,100628.75
2023-01-21T11:55:17.684Z,100632.06
2023-01-21T11:57:49.315Z,100631.50
2023-01-21T12:00:21.142Z,100625.47
2023-01-21T12:02:54.691Z,100636.44
2023-01-21T12:05:40.500Z,100639.47
2023-01-21T12:08:07.526Z,100635.34
2023-01-21T12:10:42.877Z,100628.22
2023-01-21T12:13:20.141Z,100631.78
2023-01-21T12:16:15.209Z,100625.44
2023-01-21T12:18:59.602Z,100626.28
2023-01-21T12:22:00.910Z,100622.72
2023-01-21T12:24:47.261Z,100622.97
2023-01-21T12:27:32.397Z,100626.00
2023-01-21T12:30:08.340Z,100625.19
2023-01-21T12:32:40.188Z,100617.22
2023-01-21T12:35:11.722Z,100608.16
2023-01-21T12:37:46.795Z,100613.94
2023-01-21T12:40:17.984Z,100602.72
2023-01-21T12:42:49.084Z,100605.19
2023-01-21T12:45:29.312Z,100595.56
2023-01-21T12:48:27.523Z,100593.66
2023-01-21T12:50:59.509Z,100592.56
2023-01-21T12:53:48.446Z,100583.22
2023-01-21T12:56:23.689Z,100577.72
2023-01-21T12:58:57.455Z,100579.63
2023-01-21T13:01:44.586Z,100568.38
2023-01-21T13:04:42.066Z,100573.31
2023-01-21T13:07:29.753Z,100558.50
2023-01-21T13:10:03.303Z,100557.91
2023-01-21T13:12:31.474Z,100559.28
2023-01-21T13:15:06.220Z,100546.91
2023-01-21T13:17:34.321Z,100545.28
2023-01-21T13:20:00.950Z,100541.44
2023-01-21T13:22:51.777Z,100532.66
2023-01-21T13:25:41.609Z,100525.78
2023-01-21T13:28:16.740Z,100510.69
2023-01-21T13:31:03.112Z,100518.06
2023-01-21T13:33:48.678Z,100516.75
2023-01-21T13:36:26.815Z,100512.94
2023-01-21T13:39:15.166Z,100517.06
2023-01-21T13:41:44.403Z,100515.72
2023-01-21T13:44:52.371Z,100510.78
2023-01-21T13:47:50.809Z,100520.97
2023-01-21T13:50:26.139Z,100515.19
2023-01-21T13:53:18.943Z,100521.78
2023-01-21T13:56:16.987Z,100503.97
2023-01-21T13:58:59.095Z,100510.53
2023-01-21T14:01:33.784Z,100504.78
2023-01-21T14:04:15.631Z,100498.50
2023-01-21T14:06:53.271Z,100492.47
2023-01-21T14:09:24.729Z,100495.47
2023-01-21T14:11:58.946Z,100495.47
2023-01-21T14:14:51.348Z,100491.66
2023-01-21T14:17:43.336Z,100492.19
2023-01-21T14:20:28.234Z,100492.44
2023-01-21T14:23:16.437Z,100487.53
2023-01-21T14:26:03.772Z,100483.38
2023-01-21T14:29:09.649Z,100493.00
2023-01-21T14:31:41.483Z,100490.00
2023-01-21T14:34:25.256Z,100482.03
2023-01-21T14:37:02.891Z,100476.84
2023-01-21T14:39:41.361Z,100477.63
2023-01-21T14:42:10.584Z,100485.59
2023-01-21T14:44:45.321Z,100475.16
2023-01-21T14:47:19.814Z,100472.44
2023-01-21T14:49:49.173Z,100478.47
2023-01-21T14:52:18.061Z,100474.06
2023-01-21T14:54:45.988Z,100468.59
2023-01-21T14:57:36.043Z,100477.91
2023-01-21T15:00:22.662Z,100475.44
2023-01-21T15:03:16.564Z,100480.66
2023-01-21T15:05:44.538Z,100476.28
2023-01-21T15:08:25.234Z,100477.91
2023-01-21T15:11:28.657Z,100476.81
2023-01-21T15:14:19.896Z,100474.34
2023-01-21T15:16:47.034Z,100475.44
2023-01-21T15:19:14.720Z,100477.91
2023-01-21T15:21:41.096Z,100475.16
2023-01-21T15:24:19.867Z,100479.28
2023-01-21T15:27:11.170Z,100479.56
2023-01-21T15:29:39.097Z,100479.56
2023-01-21T15:32:18.849Z,100475.16
2023-01-21T15:34:47.990Z,100481.19
2023-01-21T15:37:20.313Z,100469.97
2023-01-21T15:39:48.311Z,100463.13
2023-01-21T15:42:31.796Z,100469.97
2023-01-21T15:45:40.852Z,100466.13
2023-01-21T15:48:40.187Z,100461.47
2023-01-21T15:51:32.782Z,100466.13
2023-01-21T15:54:23.122Z,100463.38
2023-01-21T15:57:22.132Z,100456.56
2023-01-21T15:59:55.916Z,100464.47
2023-01-21T16:02:28.057Z,100460.13
2023-01-21T16:05:17.269Z,100452.97
2023-01-21T16:08:04.491Z,100457.38
2023-01-21T16:10:58.904Z,100455.44
2023-01-21T16:13:47.791Z,100453.53
2023-01-21T16:16:46.975Z,100448.59
2023-01-21T16:19:20.115Z,100459.00
2023-01-21T16:21:50.366Z,100457.09
2023-01-21T16:24:19.042Z,100452.41
2023-01-21T16:26:45.482Z,100448.03
2023-01-21T16:29:14.097Z,100457.63
2023-01-21T16:31:51.713Z,100452.16
2023-01-21T16:34:40.932Z,100456.81
2023-01-21T16:37:15.845Z,100447.75
2023-01-21T16:39:43.093Z,100448.84
2023-01-21T16:42:36.699Z,100446.38
2023-01-21T16:45:16.587Z,100456.28
2023-01-21T16:47:43.977Z,100447.47
2023-01-21T16:50:18.584Z,100447.25
2023-01-21T16:52:45.241Z,100440.66
2023-01-21T16:55:19.903Z,100438.44
2023-01-21T16:57:51.717Z,100449.41
2023-01-21T17:00:23.989Z,100445.84
2023-01-21T17:02:50.791Z,100445.84
2023-01-21T17:05:17.585Z,100447.25
2023-01-21T17:07:47.421Z,100444.75
2023-01-21T17:10:37.722Z,100454.88
2023-01-21T17:13:15.398Z,100448.84
2023-01-21T17:16:03.177Z,100454.34
2023-01-21T17:18:37.510Z,100454.34
2023-01-21T17:21:11.366Z,100452.97
2023-01-21T17:24:03.505Z,100462.59
2023-01-21T17:26:33.242Z,100458.44
2023-01-21T17:29:18.616Z,100459.53
2023-01-21T17:31:54.974Z,100459.28
2023-01-21T17:34:26.657Z,100460.94
2023-01-21T17:36:54.373Z,100462.03
2023-01-21T17:39:47.337Z,100468.06
2023-01-21T17:42:25.398Z,100462.84
2023-01-21T17:44:58.208Z,100460.41
2023-01-21T17:47:34.502Z,100461.47
2023-01-21T17:50:22.463Z,100465.06
2023-01-21T17:52:54.738Z,100472.72
2023-01-21T17:55:34.341Z,100474.38
2023-01-21T17:58:05.547Z,100470.81
2023-01-21T18:00:45.814Z,100473.81
2023-01-21T18:03:12.758Z,100479.56
2023-01-21T18:05:40.210Z,100479.03
2023-01-21T18:08:13.412Z,100480.69
2023-01-21T18:10:40.441Z,100489.72
2023-01-21T18:13:07.138Z,100481.78
2023-01-21T18:15:34.062Z,100494.66
2023-01-21T18:18:01.992Z,100486.72
2023-01-21T18:20:29.763Z,100495.47
2023-01-21T18:22:57.445Z,100492.47
2023-01-21T18:25:26.116Z,100489.16
2023-01-21T18:27:55.478Z,100496.03
2023-01-21T18:30:24.843Z,100497.69
2023-01-21T18:32:52.286Z,100489.19
2023-01-21T18:35:21.590Z,100497.13
2023-01-21T18:37:48.408Z,100499.31
2023-01-21T18:40:21.627Z,100492.75
2023-01-21T18:42:55.268Z,100502.34
2023-01-21T18:45:25.459Z,100503.16
2023-01-21T18:47:52.656Z,100498.78
2023-01-21T18:50:24.021Z,100499.03
2023-01-21T18:52:50.751Z,100497.94
2023-01-21T18:55:18.792Z,100499.88
2023-01-21T18:57:47.478Z,100493.84
2023-01-21T19:00:17.629Z,100495.47
2023-01-21T19:02:44.669Z,100502.88
2023-01-21T19:05:11.233Z,100500.13
2023-01-21T19:07:38.192Z,100496.03
2023-01-21T19:10:05.143Z,100499.03
2023-01-21T19:12:31.596Z,100509.72
2023-01-21T19:14:58.020Z,100507.00
2023-01-21T19:17:29.898Z,100505.63
2023-01-21T19:19:56.974Z,100492.44
2023-01-21T19:22:23.960Z,100508.34
2023-01-21T19:24:51.006Z,100500.69
2023-01-21T19:27:25.229Z,100504.25
2023-01-21T19:29:51.654Z,100498.22
2023-01-21T19:32:18.199Z,100503.16
2023-01-21T19:34:44.861Z,100510.28
2023-01-21T19:37:16.111Z,100507.00
2023-01-21T19:39:42.644Z,100517.94
2023-01-21T19:42:13.771Z,100510.56
2023-01-21T19:44:40.704Z,100508.63
2023-01-21T19:47:17.469Z,100522.88
2023-01-21T19:49:44.459Z,100520.44
2023-01-21T19:52:13.777Z,100524.25
2023-01-21T19:54:40.334Z,100530.03
2023-01-21T19:57:14.722Z,100542.34
2023-01-21T19:59:43.013Z,100548.94
2023-01-21T20:02:12.992Z,100551.69
2023-01-21T20:04:39.547Z,100547.28
2023-01-21T20:07:07.067Z,100545.09
2023-01-21T20:09:33.485Z,100550.03
2023-01-21T20:12:02.070Z,100553.31
2023-01-21T20:14:30.601Z,100555.25
2023-01-21T20:16:57.082Z,100563.19
2023-01-21T20:19:23.561Z,100557.44
2023-01-21T20:22:01.354Z,100566.50
2023-01-21T20:24:30.458Z,100570.31
2023-01-21T20:26:57.951Z,100573.06
2023-01-21T20:29:26.560Z,100565.94
2023-01-21T20:31:54.308Z,100573.34
2023-01-21T20:34:20.979Z,100576.09
2023-01-21T20:36:49.606Z,100582.38
2023-01-21T20:39:16.162Z,100584.31
2023-01-21T20:41:43.412Z,100582.38
2023-01-21T20:44:10.471Z,100583.22
2023-01-21T20:46:37.003Z,100586.50
2023-01-21T20:49:03.485Z,100593.63
2023-01-21T20:51:30.029Z,100589.50
2023-01-21T20:53:56.572Z,100588.16
2023-01-21T20:56:31.234Z,100593.63
2023-01-21T20:58:58.601Z,100594.72
2023-01-21T21:01:26.704Z,100600.75
2023-01-21T21:03:53.257Z,100604.06
2023-01-21T21:06:21.679Z,100597.19
2023-01-21T21:08:49.539Z,100612.53
2023-01-21T21:11:16.898Z,100612.28
2023-01-21T21:13:46.390Z,100618.03
2023-01-21T21:16:23.170Z,100620.50
2023-01-21T21:18:50.250Z,100619.69
2023-01-21T21:21:18.052Z,100623.53
2023-01-21T21:23:47.472Z,100621.31
2023-01-21T21:26:22.980Z,100628.72
2023-01-21T21:28:50.216Z,100625.16
2023-01-21T21:31:17.549Z,100627.38
2023-01-21T21:33:44.236Z,100631.19
2023-01-21T21:36:13.724Z,100625.97
2023-01-21T21:38:40.308Z,100626.53
2023-01-21T21:41:25.540Z,100632.81
2023-01-21T21:43:52.093Z,100632.53
2023-01-21T21:46:37.144Z,100633.38
2023-01-21T21:49:03.591Z,100634.22
2023-01-21T21:51:31.829Z,100638.03
2023-01-21T21:53:58.250Z,100637.22
2023-01-21T21:56:24.712Z,100638.59
2023-01-21T21:58:52.031Z,100638.31
2023-01-21T22:01:23.758Z,100641.34
2023-01-21T22:03:50.788Z,100633.66
2023-01-21T22:06:19.036Z,100648.19
2023-01-21T22:08:45.696Z,100646.84
2023-01-21T22:11:19.910Z,100646.53
2023-01-21T22:13:50.085Z,100644.63
2023-01-21T22:16:25.335Z,100646.81
2023-01-21T22:18:52.131Z,100653.94
2023-01-21T22:21:27.644Z,100650.38
2023-01-21T22:23:54.852Z,100651.47
2023-01-21T22:26:26.210Z,100653.41
2023-01-21T22:28:53.664Z,100648.19
2023-01-21T22:31:28.473Z,100653.69
2023-01-21T22:33:56.103Z,100652.31
2023-01-21T22:36:24.513Z,100660.81
2023-01-21T22:38:52.191Z,100671.50
2023-01-21T22:41:20.492Z,100666.28
2023-01-21T22:43:48.673Z,100671.22
2023-01-21T22:46:17.625Z,100669.03
2023-01-21T22:48:44.302Z,100675.63
2023-01-21T22:51:15.946Z,100675.34
2023-01-21T22:53:45.478Z,100678.09
2023-01-21T22:56:13.640Z,100680.56
2023-01-21T22:58:40.374Z,100676.44
2023-01-21T23:01:07.532Z,100676.44
2023-01-21T23:03:34.515Z,100675.06
2023-01-21T23:06:06.357Z,100671.50
2023-01-21T23:08:33.080Z,100672.31
2023-01-21T23:11:01.836Z,100680.84
2023-01-21T23:13:28.336Z,100678.06
2023-01-21T23:15:55.293Z,100673.16
2023-01-21T23:18:22.313Z,100681.38
2023-01-21T23:20:48.908Z,100686.84
2023-01-21T23:23:15.445Z,100683.56
2023-01-21T23:25:43.256Z,100683.31
2023-01-21T23:28:15.018Z,100684.94
2023-01-21T23:30:44.292Z,100690.44
2023-01-21T23:33:11.932Z,100688.25
2023-01-21T23:35:38.597Z,100684.94
2023-01-21T23:38:05.125Z,100697.28
2023-01-21T23:40:31.595Z,100690.69
2023-01-21T23:42:58.106Z,100689.88
2023-01-21T23:45:24.645Z,100699.47
2023-01-21T23:47:51.402Z,100699.75
2023-01-21T23:50:18.274Z,100688.78
2023-01-21T23:52:44.972Z,100695.63
2023-01-21T23:55:11.981Z,100702.75
2023-01-21T23:57:38.465Z,100693.44
